createdAt,value
2024-01-28T00:01:43.687Z,16.40
2024-01-28T00:04:11.661Z,10.87
2024-01-28T00:06:39.556Z,10.97
2024-01-28T00:09:07.636Z,14.23
2024-01-28T00:11:35.608Z,15.87
2024-01-28T00:14:03.270Z,14.80
2024-01-28T00:16:31.033Z,13.50
2024-01-28T00:19:01.932Z,12.47
2024-01-28T00:21:30.062Z,15.43
2024-01-28T00:23:58.542Z,11.83
2024-01-28T00:26:26.240Z,7.73
2024-01-28T00:28:53.878Z,11.73
2024-01-28T00:31:21.509Z,10.90
2024-01-28T00:33:49.373Z,12.67
2024-01-28T00:36:17.373Z,8.73
2024-01-28T00:38:45.116Z,10.47
2024-01-28T00:41:22.065Z,15.00
2024-01-28T00:43:50.377Z,10.93
2024-01-28T00:46:18.713Z,15.07
2024-01-28T00:48:46.952Z,8.63
2024-01-28T00:51:14.977Z,14.63
2024-01-28T00:53:42.982Z,12.07
2024-01-28T00:56:10.745Z,11.30
2024-01-28T00:58:38.408Z,11.93
2024-01-28T01:01:06.465Z,12.27
2024-01-28T01:03:34.283Z,12.93
2024-01-28T01:06:01.982Z,13.20
2024-01-28T01:08:29.716Z,12.17
2024-01-28T01:10:57.344Z,11.17
2024-01-28T01:13:24.966Z,8.47
2024-01-28T01:15:52.594Z,8.63
2024-01-28T01:18:20.504Z,12.80
2024-01-28T01:20:48.225Z,12.77
2024-01-28T01:23:15.894Z,10.33
2024-01-28T01:25:43.495Z,11.97
2024-01-28T01:28:11.619Z,12.70
2024-01-28T01:30:40.943Z,10.97
2024-01-28T01:33:08.831Z,14.87
2024-01-28T01:35:37.564Z,12.37
2024-01-28T01:38:05.468Z,15.40
2024-01-28T01:40:33.140Z,10.50
2024-01-28T01:43:00.904Z,13.40
2024-01-28T01:45:28.726Z,16.83
2024-01-28T01:47:56.612Z,18.17
2024-01-28T01:50:24.295Z,16.00
2024-01-28T01:52:52.283Z,13.87
2024-01-28T01:55:19.877Z,13.37
2024-01-28T01:57:47.730Z,14.00
2024-01-28T02:00:16.637Z,12.87
2024-01-28T02:02:48.527Z,11.33
2024-01-28T02:05:17.499Z,12.77
2024-01-28T02:07:45.227Z,16.67
2024-01-28T02:10:12.915Z,13.93
2024-01-28T02:12:40.889Z,16.70
2024-01-28T02:15:10.666Z,14.17
2024-01-28T02:17:38.444Z,14.60
2024-01-28T02:20:06.785Z,10.70
2024-01-28T02:22:34.665Z,11.40
2024-01-28T02:25:04.652Z,18.07
2024-01-28T02:27:32.428Z,12.17
2024-01-28T02:30:00.077Z,14.63
2024-01-28T02:32:28.052Z,10.20
2024-01-28T02:34:55.931Z,14.40
2024-01-28T02:37:24.033Z,11.10
2024-01-28T02:39:51.747Z,13.17
2024-01-28T02:42:19.584Z,16.50
2024-01-28T02:44:47.264Z,17.40
2024-01-28T02:47:14.911Z,13.30
2024-01-28T02:49:42.651Z,16.93
2024-01-28T02:52:10.364Z,17.40
2024-01-28T02:54:38.074Z,16.60
2024-01-28T02:57:05.863Z,13.47
2024-01-28T02:59:33.569Z,13.97
2024-01-28T03:02:01.244Z,21.07
2024-01-28T03:04:29.010Z,10.73
2024-01-28T03:06:56.857Z,15.97
2024-01-28T03:09:26.376Z,13.53
2024-01-28T03:11:54.073Z,18.93
2024-01-28T03:14:21.781Z,16.77
2024-01-28T03:16:50.403Z,11.60
2024-01-28T03:19:18.207Z,14.93
2024-01-28T03:21:45.931Z,15.43
2024-01-28T03:24:13.589Z,13.37
2024-01-28T03:26:41.390Z,18.87
2024-01-28T03:29:09.123Z,18.30
2024-01-28T03:31:36.731Z,16.97
2024-01-28T03:34:04.527Z,18.47
2024-01-28T03:36:32.234Z,16.27
2024-01-28T03:38:59.980Z,15.73
2024-01-28T03:41:27.980Z,20.90
2024-01-28T03:43:55.681Z,16.93
2024-01-28T03:46:23.341Z,14.20
2024-01-28T03:48:51.196Z,16.80
2024-01-28T03:51:19.068Z,19.27
2024-01-28T03:53:47.212Z,19.53
2024-01-28T03:56:14.952Z,19.40
2024-01-28T03:58:42.711Z,15.83
2024-01-28T04:01:10.480Z,17.53
2024-01-28T04:03:39.913Z,19.70
2024-01-28T04:06:07.684Z,21.93
2024-01-28T04:08:35.840Z,20.97
2024-01-28T04:11:07.234Z,18.77
2024-01-28T04:13:34.987Z,13.13
2024-01-28T04:16:02.633Z,19.93
2024-01-28T04:18:30.403Z,17.37
2024-01-28T04:20:58.080Z,16.13
2024-01-28T04:23:25.745Z,18.90
2024-01-28T04:25:53.399Z,15.70
2024-01-28T04:28:21.335Z,14.50
2024-01-28T04:30:49.082Z,17.27
2024-01-28T04:33:16.946Z,17.17
2024-01-28T04:35:44.644Z,21.13
2024-01-28T04:38:12.502Z,19.43
2024-01-28T04:40:40.156Z,17.87
2024-01-28T04:43:07.826Z,17.60
2024-01-28T04:45:35.579Z,22.00
2024-01-28T04:48:03.492Z,29.47
2024-01-28T04:50:31.584Z,19.20
2024-01-28T04:52:59.288Z,18.97
2024-01-28T04:55:26.976Z,15.67
2024-01-28T04:57:54.655Z,17.03
2024-01-28T05:00:22.462Z,16.77
2024-01-28T05:02:50.153Z,13.20
2024-01-28T05:05:17.794Z,22.40
2024-01-28T05:07:45.475Z,17.73
2024-01-28T05:10:14.140Z,18.33
2024-01-28T05:12:42.741Z,18.73
2024-01-28T05:15:11.053Z,17.97
2024-01-28T05:17:38.764Z,20.33
2024-01-28T05:20:10.346Z,26.63
2024-01-28T05:22:37.995Z,29.50
2024-01-28T05:25:06.047Z,18.67
2024-01-28T05:27:33.703Z,21.73
2024-01-28T05:30:01.455Z,20.00
2024-01-28T05:32:29.343Z,19.93
2024-01-28T05:35:05.502Z,18.93
2024-01-28T05:37:33.260Z,21.67
2024-01-28T05:40:00.980Z,17.27
2024-01-28T05:42:28.624Z,17.30
2024-01-28T05:44:56.271Z,17.43
2024-01-28T05:47:23.956Z,16.63
2024-01-28T05:49:51.783Z,23.77
2024-01-28T05:52:19.506Z,16.03
2024-01-28T05:54:47.255Z,16.77
2024-01-28T05:57:15.042Z,20.17
2024-01-28T05:59:42.849Z,12.50
2024-01-28T06:02:10.570Z,26.23
2024-01-28T06:04:38.609Z,20.33
2024-01-28T06:07:06.571Z,13.90
2024-01-28T06:09:35.031Z,16.70
2024-01-28T06:12:02.686Z,15.70
2024-01-28T06:14:30.407Z,13.60
2024-01-28T06:16:58.111Z,16.43
2024-01-28T06:19:25.893Z,16.47
2024-01-28T06:21:54.465Z,21.53
2024-01-28T06:24:22.076Z,18.37
2024-01-28T06:26:54.266Z,16.43
2024-01-28T06:29:23.438Z,18.30
2024-01-28T06:31:51.586Z,21.63
2024-01-28T06:34:20.090Z,20.17
2024-01-28T06:36:48.102Z,12.30
2024-01-28T06:39:16.304Z,16.33
2024-01-28T06:41:45.068Z,17.53
2024-01-28T06:44:12.880Z,18.03
2024-01-28T06:46:40.834Z,16.40
2024-01-28T06:49:08.651Z,13.57
2024-01-28T06:51:36.412Z,14.83
2024-01-28T06:54:04.033Z,13.73
2024-01-28T06:56:31.809Z,17.27
2024-01-28T06:58:59.450Z,16.33
2024-01-28T07:01:27.242Z,21.57
2024-01-28T07:03:55.040Z,17.40
2024-01-28T07:06:23.067Z,22.33
2024-01-28T07:08:50.931Z,18.37
2024-01-28T07:11:18.655Z,20.33
2024-01-28T07:13:46.354Z,16.50
2024-01-28T07:16:14.474Z,23.77
2024-01-28T07:18:42.260Z,15.07
2024-01-28T07:21:09.954Z,19.27
2024-01-28T07:23:37.643Z,14.63
2024-01-28T07:26:05.537Z,18.17
2024-01-28T07:28:34.905Z,14.33
2024-01-28T07:31:02.596Z,15.63
2024-01-28T07:33:30.384Z,15.03
2024-01-28T07:35:58.126Z,20.33
2024-01-28T07:38:25.712Z,14.03
2024-01-28T07:40:53.377Z,22.33
2024-01-28T07:43:21.225Z,14.73
2024-01-28T07:45:49.190Z,21.37
2024-01-28T07:48:19.234Z,16.30
2024-01-28T07:50:47.100Z,19.10
2024-01-28T07:53:15.576Z,17.43
2024-01-28T07:55:43.231Z,19.77
2024-01-28T07:58:10.854Z,15.23
2024-01-28T08:00:38.532Z,18.80
2024-01-28T08:03:06.261Z,17.80
2024-01-28T08:05:34.034Z,20.37
2024-01-28T08:08:02.126Z,16.23
2024-01-28T08:10:29.938Z,18.47
2024-01-28T08:12:58.121Z,21.40
2024-01-28T08:15:25.811Z,23.17
2024-01-28T08:17:53.624Z,18.10
2024-01-28T08:20:21.335Z,17.57
2024-01-28T08:22:49.070Z,18.17
2024-01-28T08:25:17.086Z,19.43
2024-01-28T08:27:46.211Z,21.53
2024-01-28T08:30:14.668Z,29.83
2024-01-28T08:32:42.429Z,20.60
2024-01-28T08:35:10.485Z,19.60
2024-01-28T08:37:38.183Z,19.27
2024-01-28T08:40:08.773Z,23.53
2024-01-28T08:42:36.682Z,22.30
2024-01-28T08:45:04.534Z,22.00
2024-01-28T08:47:32.797Z,20.37
2024-01-28T08:50:01.047Z,23.57
2024-01-28T08:52:28.803Z,23.57
2024-01-28T08:54:56.601Z,19.53
2024-01-28T08:57:24.324Z,23.47
2024-01-28T08:59:51.989Z,23.13
2024-01-28T09:02:19.669Z,22.33
2024-01-28T09:04:47.477Z,25.13
2024-01-28T09:07:15.252Z,28.87
2024-01-28T09:09:42.960Z,27.10
2024-01-28T09:12:11.364Z,28.23
2024-01-28T09:14:39.323Z,29.53
2024-01-28T09:17:06.971Z,27.63
2024-01-28T09:19:34.697Z,26.27
2024-01-28T09:22:03.198Z,26.03
2024-01-28T09:24:31.033Z,25.70
2024-01-28T09:27:03.107Z,24.00
2024-01-28T09:29:31.837Z,19.10
2024-01-28T09:32:00.642Z,19.53
2024-01-28T09:34:31.305Z,25.73
2024-01-28T09:36:59.119Z,26.20
2024-01-28T09:39:27.283Z,26.67
2024-01-28T09:42:03.862Z,26.83
2024-01-28T09:44:31.559Z,27.33
2024-01-28T09:46:59.818Z,26.97
2024-01-28T09:49:29.397Z,29.80
2024-01-28T09:51:57.159Z,28.53
2024-01-28T09:54:26.074Z,23.60
2024-01-28T09:56:54.600Z,21.33
2024-01-28T09:59:22.324Z,20.60
2024-01-28T10:01:52.484Z,22.60
2024-01-28T10:04:20.255Z,18.40
2024-01-28T10:06:49.352Z,24.83
2024-01-28T10:09:18.548Z,21.57
2024-01-28T10:11:46.612Z,18.80
2024-01-28T10:14:14.832Z,22.17
2024-01-28T10:16:45.885Z,22.87
2024-01-28T10:19:13.758Z,23.27
2024-01-28T10:21:41.625Z,27.80
2024-01-28T10:24:16.576Z,24.97
2024-01-28T10:26:44.551Z,24.93
2024-01-28T10:29:13.613Z,23.63
2024-01-28T10:31:42.051Z,26.67
2024-01-28T10:34:11.097Z,20.90
2024-01-28T10:36:41.628Z,25.07
2024-01-28T10:39:14.984Z,24.30
2024-01-28T10:41:46.165Z,24.20
2024-01-28T10:44:15.192Z,20.90
2024-01-28T10:46:45.906Z,24.47
2024-01-28T10:49:14.670Z,27.63
2024-01-28T10:51:42.623Z,20.93
2024-01-28T10:54:11.627Z,24.80
2024-01-28T10:56:39.862Z,23.60
2024-01-28T10:59:07.847Z,21.80
2024-01-28T11:01:36.519Z,21.07
2024-01-28T11:04:05.700Z,20.37
2024-01-28T11:06:33.729Z,21.20
2024-01-28T11:09:02.082Z,21.87
2024-01-28T11:11:31.838Z,22.87
2024-01-28T11:13:59.565Z,22.47
2024-01-28T11:16:30.071Z,23.47
2024-01-28T11:19:08.459Z,23.67
2024-01-28T11:21:37.038Z,22.53
2024-01-28T11:24:09.893Z,24.17
2024-01-28T11:26:43.371Z,22.63
2024-01-28T11:29:12.620Z,23.07
2024-01-28T11:31:41.834Z,21.53
2024-01-28T11:34:22.861Z,23.77
2024-01-28T11:36:55.115Z,21.17
2024-01-28T11:39:47.024Z,21.87
2024-01-28T11:42:15.537Z,22.10
2024-01-28T11:44:47.553Z,22.00
2024-01-28T11:47:19.043Z,20.33
2024-01-28T11:49:47.016Z,21.63
2024-01-28T11:52:14.853Z,21.13
2024-01-28T11:54:46.191Z,21.83
2024-01-28T11:57:14.039Z,21.17
2024-01-28T11:59:41.761Z,21.13
2024-01-28T12:02:10.523Z,20.53
2024-01-28T12:04:41.832Z,24.00
2024-01-28T12:07:10.181Z,22.57
2024-01-28T12:09:39.708Z,21.77
2024-01-28T12:12:08.737Z,22.10
2024-01-28T12:14:36.487Z,20.33
2024-01-28T12:17:04.244Z,24.07
2024-01-28T12:19:32.082Z,20.97
2024-01-28T12:21:59.996Z,22.27
2024-01-28T12:24:28.149Z,20.40
2024-01-28T12:26:55.832Z,23.83
2024-01-28T12:29:23.519Z,19.27
2024-01-28T12:31:51.608Z,19.40
2024-01-28T12:34:19.487Z,19.43
2024-01-28T12:36:47.361Z,17.67
2024-01-28T12:39:15.061Z,12.47
2024-01-28T12:41:43.023Z,17.43
2024-01-28T12:44:10.911Z,20.10
2024-01-28T12:46:38.666Z,16.43
2024-01-28T12:49:09.357Z,18.57
2024-01-28T12:51:39.525Z,17.43
2024-01-28T12:54:07.319Z,16.20
2024-01-28T12:56:35.113Z,18.87
2024-01-28T12:59:02.786Z,16.33
2024-01-28T13:01:30.688Z,15.53
2024-01-28T13:04:00.943Z,19.10
2024-01-28T13:06:28.895Z,17.30
2024-01-28T13:09:00.717Z,17.80
2024-01-28T13:11:28.536Z,19.07
2024-01-28T13:13:56.191Z,21.00
2024-01-28T13:16:24.875Z,17.20
2024-01-28T13:18:52.735Z,16.43
2024-01-28T13:21:20.549Z,16.27
2024-01-28T13:23:48.217Z,14.90
2024-01-28T13:26:20.211Z,22.63
2024-01-28T13:28:47.942Z,16.93
2024-01-28T13:31:15.625Z,16.33
2024-01-28T13:33:43.400Z,15.77
2024-01-28T13:36:11.779Z,18.03
2024-01-28T13:38:39.532Z,16.30
2024-01-28T13:41:07.218Z,15.57
2024-01-28T13:43:38.261Z,16.70
2024-01-28T13:46:06.241Z,15.77
2024-01-28T13:48:34.054Z,18.40
2024-01-28T13:51:01.866Z,18.03
2024-01-28T13:53:29.813Z,17.20
2024-01-28T13:55:57.597Z,13.13
2024-01-28T13:58:25.581Z,19.33
2024-01-28T14:00:52.966Z,14.93
2024-01-28T14:03:20.362Z,18.60
2024-01-28T14:05:47.988Z,18.30
2024-01-28T14:08:15.404Z,14.73
2024-01-28T14:10:42.870Z,17.40
2024-01-28T14:13:10.546Z,14.53
2024-01-28T14:15:39.813Z,15.83
2024-01-28T14:18:07.734Z,16.57
2024-01-28T14:20:35.449Z,16.30
2024-01-28T14:23:03.390Z,17.17
2024-01-28T14:25:31.071Z,15.50
2024-01-28T14:27:58.852Z,17.57
2024-01-28T14:30:26.578Z,18.80
2024-01-28T14:32:54.390Z,21.23
2024-01-28T14:35:22.069Z,20.27
2024-01-28T14:37:50.869Z,20.30
2024-01-28T14:40:19.330Z,19.00
2024-01-28T14:42:47.219Z,18.67
2024-01-28T14:45:15.119Z,16.27
2024-01-28T14:47:42.928Z,20.50
2024-01-28T14:50:11.042Z,16.23
2024-01-28T14:52:38.803Z,15.97
2024-01-28T14:55:06.844Z,17.70
2024-01-28T14:57:34.633Z,19.87
2024-01-28T15:00:02.355Z,18.03
2024-01-28T15:02:31.025Z,16.37
2024-01-28T15:04:58.932Z,18.50
2024-01-28T15:07:26.757Z,18.83
2024-01-28T15:09:56.541Z,16.47
2024-01-28T15:12:25.884Z,18.30
2024-01-28T15:14:53.836Z,19.00
2024-01-28T15:17:21.522Z,17.03
2024-01-28T15:19:49.312Z,17.27
2024-01-28T15:22:17.135Z,20.33
2024-01-28T15:24:44.832Z,22.40
2024-01-28T15:27:12.609Z,22.20
2024-01-28T15:29:40.314Z,22.73
2024-01-28T15:32:08.319Z,23.73
2024-01-28T15:34:36.342Z,22.33
2024-01-28T15:37:04.667Z,22.57
2024-01-28T15:39:32.614Z,21.87
2024-01-28T15:42:00.408Z,19.13
2024-01-28T15:44:28.222Z,21.43
2024-01-28T15:46:56.090Z,24.13
2024-01-28T15:49:24.083Z,18.60
2024-01-28T15:51:51.863Z,25.03
2024-01-28T15:54:19.634Z,22.30
2024-01-28T15:56:47.425Z,22.67
2024-01-28T15:59:15.271Z,21.47
2024-01-28T16:01:44.173Z,23.80
2024-01-28T16:04:12.106Z,21.40
2024-01-28T16:06:39.920Z,23.90
2024-01-28T16:09:08.936Z,27.73
2024-01-28T16:11:37.790Z,27.80
2024-01-28T16:14:05.459Z,29.77
2024-01-28T16:16:33.167Z,31.83
2024-01-28T16:19:01.081Z,23.20
2024-01-28T16:21:28.832Z,27.80
2024-01-28T16:23:57.054Z,31.70
2024-01-28T16:26:24.787Z,28.20
2024-01-28T16:28:52.569Z,30.43
2024-01-28T16:31:21.403Z,29.63
2024-01-28T16:33:49.170Z,29.20
2024-01-28T16:36:19.657Z,32.10
2024-01-28T16:38:48.069Z,30.90
2024-01-28T16:41:15.846Z,30.47
2024-01-28T16:43:43.601Z,29.57
2024-01-28T16:46:11.404Z,29.90
2024-01-28T16:48:39.307Z,27.93
2024-01-28T16:51:07.193Z,29.97
2024-01-28T16:53:34.857Z,28.00
2024-01-28T16:56:02.628Z,33.87
2024-01-28T16:58:30.320Z,30.40
2024-01-28T17:00:58.098Z,27.97
2024-01-28T17:03:25.922Z,26.20
2024-01-28T17:05:53.802Z,30.43
2024-01-28T17:08:21.547Z,32.50
2024-01-28T17:10:49.245Z,30.53
2024-01-28T17:13:16.953Z,29.33
2024-01-28T17:15:44.789Z,32.37
2024-01-28T17:18:14.159Z,29.07
2024-01-28T17:20:42.232Z,29.27
2024-01-28T17:23:12.108Z,27.40
2024-01-28T17:25:39.869Z,28.70
2024-01-28T17:28:07.651Z,30.00
2024-01-28T17:30:35.434Z,29.17
2024-01-28T17:33:03.348Z,29.17
2024-01-28T17:35:31.075Z,32.00
2024-01-28T17:37:58.970Z,29.40
2024-01-28T17:40:26.678Z,30.40
2024-01-28T17:42:54.466Z,30.70
2024-01-28T17:45:24.400Z,28.13
2024-01-28T17:47:52.201Z,26.07
2024-01-28T17:50:20.139Z,29.97
2024-01-28T17:52:48.135Z,32.00
2024-01-28T17:55:15.878Z,31.13
2024-01-28T17:57:43.679Z,31.37
2024-01-28T18:00:12.110Z,29.03
2024-01-28T18:02:40.558Z,33.17
2024-01-28T18:05:08.410Z,30.90
2024-01-28T18:07:36.226Z,32.87
2024-01-28T18:10:04.364Z,26.97
2024-01-28T18:12:32.136Z,29.17
2024-01-28T18:14:59.832Z,25.87
2024-01-28T18:17:29.133Z,28.57
2024-01-28T18:19:57.460Z,30.43
2024-01-28T18:22:25.208Z,34.10
2024-01-28T18:24:53.076Z,31.77
2024-01-28T18:27:20.921Z,32.53
2024-01-28T18:29:49.690Z,30.57
2024-01-28T18:32:17.511Z,33.47
2024-01-28T18:34:45.342Z,37.73
2024-01-28T18:37:13.264Z,31.63
2024-01-28T18:39:44.211Z,34.57
2024-01-28T18:42:12.044Z,33.93
2024-01-28T18:44:39.783Z,36.97
2024-01-28T18:47:08.243Z,32.30
2024-01-28T18:49:36.136Z,32.43
2024-01-28T18:52:04.031Z,36.27
2024-01-28T18:54:31.779Z,37.63
2024-01-28T18:56:59.637Z,35.93
2024-01-28T18:59:27.817Z,36.03
2024-01-28T19:01:55.836Z,38.77
2024-01-28T19:04:23.651Z,42.40
2024-01-28T19:06:51.465Z,38.23
2024-01-28T19:09:19.311Z,40.27
2024-01-28T19:11:47.309Z,37.20
2024-01-28T19:14:16.214Z,36.03
2024-01-28T19:16:44.246Z,40.10
2024-01-28T19:19:12.088Z,34.33
2024-01-28T19:21:40.309Z,33.57
2024-01-28T19:24:08.080Z,36.90
2024-01-28T19:26:35.779Z,39.60
2024-01-28T19:29:04.399Z,38.83
2024-01-28T19:31:32.065Z,35.37
2024-01-28T19:33:59.933Z,34.27
2024-01-28T19:36:34.292Z,33.80
2024-01-28T19:39:04.767Z,38.90
2024-01-28T19:41:32.445Z,37.63
2024-01-28T19:44:01.880Z,37.10
2024-01-28T19:46:30.695Z,38.97
2024-01-28T19:48:58.623Z,30.83
2024-01-28T19:51:28.176Z,32.77
2024-01-28T19:53:56.053Z,35.10
2024-01-28T19:56:23.784Z,36.27
2024-01-28T19:58:51.598Z,31.43
2024-01-28T20:01:19.381Z,30.47
2024-01-28T20:03:47.167Z,32.73
2024-01-28T20:06:23.224Z,35.33
2024-01-28T20:09:00.041Z,36.53
2024-01-28T20:11:27.745Z,30.73
2024-01-28T20:13:55.525Z,36.47
2024-01-28T20:16:24.510Z,38.13
2024-01-28T20:18:52.440Z,35.47
2024-01-28T20:21:20.301Z,35.73
2024-01-28T20:23:48.352Z,34.40
2024-01-28T20:26:16.834Z,34.70
2024-01-28T20:28:44.524Z,34.67
2024-01-28T20:31:18.673Z,34.07
2024-01-28T20:33:46.781Z,39.17
2024-01-28T20:36:14.542Z,38.20
2024-01-28T20:38:42.296Z,41.30
2024-01-28T20:41:09.990Z,42.80
2024-01-28T20:43:37.732Z,44.07
2024-01-28T20:46:05.543Z,45.90
2024-01-28T20:48:33.517Z,40.83
2024-01-28T20:51:01.266Z,43.27
2024-01-28T20:53:29.786Z,44.83
2024-01-28T20:55:57.462Z,37.60
2024-01-28T20:58:25.179Z,38.40
2024-01-28T21:00:52.934Z,35.17
2024-01-28T21:03:20.786Z,38.57
2024-01-28T21:05:48.547Z,39.13
2024-01-28T21:08:20.716Z,48.60
2024-01-28T21:10:48.514Z,38.33
2024-01-28T21:13:16.297Z,45.17
2024-01-28T21:15:44.167Z,40.17
2024-01-28T21:18:12.075Z,38.90
2024-01-28T21:20:41.044Z,42.03
2024-01-28T21:23:08.783Z,39.57
2024-01-28T21:25:36.730Z,37.00
2024-01-28T21:28:05.301Z,39.53
2024-01-28T21:30:33.373Z,41.70
2024-01-28T21:33:01.391Z,38.20
2024-01-28T21:35:29.160Z,47.30
2024-01-28T21:37:57.296Z,40.50
2024-01-28T21:40:24.992Z,43.43
2024-01-28T21:42:52.740Z,39.87
2024-01-28T21:45:20.539Z,39.53
2024-01-28T21:47:48.386Z,38.17
2024-01-28T21:50:16.441Z,47.00
2024-01-28T21:52:44.185Z,53.80
2024-01-28T21:55:12.527Z,47.80
2024-01-28T21:57:40.309Z,45.67
2024-01-28T22:00:08.331Z,40.00
2024-01-28T22:02:36.657Z,47.03
2024-01-28T22:05:05.397Z,42.40
2024-01-28T22:07:33.097Z,52.87
2024-01-28T22:10:01.163Z,44.80
2024-01-28T22:12:30.160Z,38.77
2024-01-28T22:14:57.877Z,36.77
2024-01-28T22:17:26.361Z,37.47
2024-01-28T22:19:54.187Z,55.83
2024-01-28T22:22:22.019Z,44.63
2024-01-28T22:24:49.752Z,44.87
2024-01-28T22:27:17.498Z,42.80
2024-01-28T22:29:45.915Z,43.37
2024-01-28T22:32:13.632Z,40.80
2024-01-28T22:34:44.814Z,43.90
2024-01-28T22:37:12.647Z,43.73
2024-01-28T22:39:40.472Z,50.77
2024-01-28T22:42:08.228Z,42.33
2024-01-28T22:44:35.923Z,38.23
2024-01-28T22:47:05.131Z,38.07
2024-01-28T22:49:33.414Z,37.77
2024-01-28T22:52:01.302Z,43.33
2024-01-28T22:54:29.160Z,41.13
2024-01-28T22:56:56.896Z,45.67
2024-01-28T22:59:24.649Z,36.27
2024-01-28T23:01:52.824Z,39.10
2024-01-28T23:04:20.598Z,34.93
2024-01-28T23:06:48.466Z,43.33
2024-01-28T23:09:16.250Z,40.77
2024-01-28T23:11:43.990Z,38.70
2024-01-28T23:14:12.172Z,43.73
2024-01-28T23:16:39.868Z,44.43
2024-01-28T23:19:07.755Z,41.33
2024-01-28T23:21:35.605Z,43.40
2024-01-28T23:24:03.535Z,40.40
2024-01-28T23:26:31.613Z,42.37
2024-01-28T23:28:59.266Z,35.30
2024-01-28T23:31:26.998Z,34.60
2024-01-28T23:34:03.107Z,33.83
2024-01-28T23:36:34.180Z,46.90
2024-01-28T23:39:02.198Z,45.67
2024-01-28T23:41:29.920Z,41.03
2024-01-28T23:43:57.664Z,36.97
2024-01-28T23:46:25.338Z,57.00
2024-01-28T23:48:54.025Z,41.90
2024-01-28T23:51:21.809Z,31.37
2024-01-28T23:53:50.051Z,41.20
2024-01-28T23:56:17.725Z,32.83
2024-01-28T23:58:45.445Z,37.10
